createdAt,value
2023-04-16T00:00:37.611Z,102791.53
2023-04-16T00:03:42.992Z,102795.78
2023-04-16T00:06:48.530Z,102806.31
2023-04-16T00:09:53.649Z,102796.31
2023-04-16T00:13:00.101Z,102793.41
2023-04-16T00:16:05.456Z,102797.28
2023-04-16T00:19:11.509Z,102796.31
2023-04-16T00:22:16.797Z,102789.53
2023-04-16T00:25:22.021Z,102788.50
2023-04-16T00:28:28.650Z,102785.88
2023-04-16T00:31:34.961Z,102779.63
2023-04-16T00:34:41.741Z,102788.22
2023-04-16T00:37:47.041Z,102788.22
2023-04-16T00:40:52.204Z,102773.81
2023-04-16T00:43:58.699Z,102772.97
2023-04-16T00:47:04.170Z,102766.91
2023-04-16T00:50:10.094Z,102770.34
2023-04-16T00:53:16.279Z,102761.69
2023-04-16T00:56:22.265Z,102764.88
2023-04-16T00:59:29.010Z,102763.22
2023-04-16T01:02:35.571Z,102768.91
2023-04-16T01:05:41.096Z,102759.63
2023-04-16T01:08:46.457Z,102763.59
2023-04-16T01:11:51.638Z,102762.66
2023-04-16T01:14:58.699Z,102757.50
2023-04-16T01:18:03.881Z,102760.59
2023-04-16T01:21:12.566Z,102754.91
2023-04-16T01:24:17.737Z,102766.59
2023-04-16T01:27:22.753Z,102757.94
2023-04-16T01:30:28.300Z,102753.81
2023-04-16T01:33:56.215Z,102755.28
2023-04-16T01:37:04.211Z,102756.69
2023-04-16T01:40:12.304Z,102751.00
2023-04-16T01:43:17.502Z,102750.88
2023-04-16T01:46:27.926Z,102749.91
2023-04-16T01:49:33.923Z,102746.53
2023-04-16T01:52:40.457Z,102746.41
2023-04-16T01:55:45.740Z,102739.56
2023-04-16T01:58:51.061Z,102747.78
2023-04-16T02:01:57.265Z,102748.50
2023-04-16T02:05:02.448Z,102739.16
2023-04-16T02:08:09.352Z,102739.47
2023-04-16T02:11:14.439Z,102738.22
2023-04-16T02:14:20.125Z,102738.13
2023-04-16T02:17:25.496Z,102741.63
2023-04-16T02:20:42.686Z,102739.84
2023-04-16T02:23:52.177Z,102744.03
2023-04-16T02:27:03.333Z,102739.72
2023-04-16T02:30:09.715Z,102741.19
2023-04-16T02:33:15.675Z,102745.31
2023-04-16T02:36:31.630Z,102750.31
2023-04-16T02:39:38.798Z,102753.00
2023-04-16T02:42:43.866Z,102747.84
2023-04-16T02:45:49.087Z,102741.25
2023-04-16T02:48:54.233Z,102741.09
2023-04-16T02:51:59.287Z,102750.25
2023-04-16T02:55:06.312Z,102756.09
2023-04-16T02:58:15.505Z,102750.16
2023-04-16T03:01:20.647Z,102752.44
2023-04-16T03:04:25.944Z,102748.09
2023-04-16T03:07:31.232Z,102741.22
2023-04-16T03:10:37.837Z,102748.69
2023-04-16T03:13:43.193Z,102747.91
2023-04-16T03:16:48.725Z,102749.44
2023-04-16T03:19:54.020Z,102755.94
2023-04-16T03:22:59.157Z,102755.22
2023-04-16T03:26:06.575Z,102750.97
2023-04-16T03:29:12.468Z,102743.28
2023-04-16T03:32:17.618Z,102754.03
2023-04-16T03:35:23.081Z,102739.84
2023-04-16T03:38:28.708Z,102752.44
2023-04-16T03:41:36.972Z,102742.47
2023-04-16T03:44:42.119Z,102754.00
2023-04-16T03:47:52.490Z,102760.78
2023-04-16T03:51:00.734Z,102759.25
2023-04-16T03:54:06.846Z,102749.19
2023-04-16T03:57:14.385Z,102761.84
2023-04-16T04:00:19.764Z,102758.81
2023-04-16T04:03:47.903Z,102772.16
2023-04-16T04:06:53.808Z,102773.88
2023-04-16T04:09:58.875Z,102769.59
2023-04-16T04:13:06.406Z,102767.19
2023-04-16T04:16:14.569Z,102773.28
2023-04-16T04:19:21.478Z,102762.19
2023-04-16T04:22:27.061Z,102769.13
2023-04-16T04:25:32.351Z,102759.72
2023-04-16T04:28:41.726Z,102775.88
2023-04-16T04:31:46.944Z,102772.50
2023-04-16T04:34:52.231Z,102773.59
2023-04-16T04:37:57.390Z,102773.41
2023-04-16T04:41:02.439Z,102780.41
2023-04-16T04:44:13.908Z,102773.75
2023-04-16T04:47:20.141Z,102767.97
2023-04-16T04:50:25.302Z,102775.88
2023-04-16T04:53:30.587Z,102767.66
2023-04-16T04:56:35.813Z,102771.09
2023-04-16T04:59:42.378Z,102764.50
2023-04-16T05:02:49.725Z,102763.06
2023-04-16T05:05:54.969Z,102756.25
2023-04-16T05:09:00.098Z,102764.88
2023-04-16T05:12:05.171Z,102766.13
2023-04-16T05:15:13.283Z,102770.63
2023-04-16T05:18:18.666Z,102769.72
2023-04-16T05:21:23.921Z,102766.50
2023-04-16T05:24:28.917Z,102759.69
2023-04-16T05:27:34.032Z,102758.59
2023-04-16T05:30:40.839Z,102755.88
2023-04-16T05:33:46.182Z,102758.25
2023-04-16T05:36:51.269Z,102754.84
2023-04-16T05:39:56.384Z,102758.22
2023-04-16T05:43:01.509Z,102755.28
2023-04-16T05:46:08.466Z,102753.09
2023-04-16T05:49:13.852Z,102758.09
2023-04-16T05:52:18.967Z,102753.38
2023-04-16T05:55:23.944Z,102757.63
2023-04-16T05:58:29.027Z,102749.19
2023-04-16T06:01:35.813Z,102757.28
2023-04-16T06:04:41.098Z,102745.75
2023-04-16T06:07:46.412Z,102751.91
2023-04-16T06:10:51.702Z,102742.31
2023-04-16T06:13:56.758Z,102753.56
2023-04-16T06:17:03.241Z,102751.34
2023-04-16T06:20:09.525Z,102740.75
2023-04-16T06:23:14.812Z,102746.81
2023-04-16T06:26:20.002Z,102748.53
2023-04-16T06:29:37.084Z,102751.31
2023-04-16T06:32:48.126Z,102743.63
2023-04-16T06:35:53.370Z,102740.47
2023-04-16T06:38:58.561Z,102747.47
2023-04-16T06:42:03.723Z,102750.00
2023-04-16T06:45:10.617Z,102745.91
2023-04-16T06:48:17.352Z,102748.38
2023-04-16T06:51:22.675Z,102748.53
2023-04-16T06:54:27.783Z,102754.22
2023-04-16T06:57:32.856Z,102755.72
2023-04-16T07:00:38.048Z,102748.84
2023-04-16T07:03:44.725Z,102763.09
2023-04-16T07:06:50.247Z,102758.22
2023-04-16T07:09:55.273Z,102771.84
2023-04-16T07:13:01.604Z,102764.06
2023-04-16T07:16:07.278Z,102764.72
2023-04-16T07:19:13.860Z,102762.38
2023-04-16T07:22:19.330Z,102763.84
2023-04-16T07:25:24.450Z,102763.66
2023-04-16T07:28:29.684Z,102755.44
2023-04-16T07:31:34.882Z,102758.19
2023-04-16T07:34:41.388Z,102762.84
2023-04-16T07:37:46.509Z,102748.06
2023-04-16T07:40:51.591Z,102751.78
2023-04-16T07:43:56.790Z,102755.50
2023-04-16T07:47:04.742Z,102750.72
2023-04-16T07:50:14.151Z,102752.78
2023-04-16T07:53:19.312Z,102744.53
2023-04-16T07:56:24.485Z,102758.69
2023-04-16T07:59:29.806Z,102749.28
2023-04-16T08:02:35.581Z,102750.72
2023-04-16T08:05:42.170Z,102746.66
2023-04-16T08:08:47.454Z,102752.66
2023-04-16T08:11:52.552Z,102754.31
2023-04-16T08:14:58.011Z,102740.91
2023-04-16T08:18:03.191Z,102741.88
2023-04-16T08:21:09.945Z,102744.47
2023-04-16T08:24:15.505Z,102743.72
2023-04-16T08:27:20.869Z,102739.94
2023-04-16T08:30:25.983Z,102738.91
2023-04-16T08:33:31.118Z,102743.47
2023-04-16T08:36:37.614Z,102744.44
2023-04-16T08:39:43.749Z,102751.06
2023-04-16T08:42:54.509Z,102743.69
2023-04-16T08:46:00.064Z,102744.47
2023-04-16T08:49:08.193Z,102736.78
2023-04-16T08:52:17.922Z,102746.09
2023-04-16T08:55:24.764Z,102741.50
2023-04-16T08:58:32.332Z,102745.28
2023-04-16T09:01:39.088Z,102737.50
2023-04-16T09:04:44.482Z,102740.03
2023-04-16T09:07:51.135Z,102745.53
2023-04-16T09:10:58.131Z,102748.91
2023-04-16T09:14:03.199Z,102749.84
2023-04-16T09:17:08.547Z,102748.81
2023-04-16T09:20:13.817Z,102744.94
2023-04-16T09:23:20.867Z,102745.06
2023-04-16T09:26:26.368Z,102746.66
2023-04-16T09:29:38.370Z,102738.25
2023-04-16T09:32:43.665Z,102738.63
2023-04-16T09:35:50.343Z,102740.13
2023-04-16T09:38:58.181Z,102742.63
2023-04-16T09:42:06.240Z,102738.44
2023-04-16T09:45:11.965Z,102741.09
2023-04-16T09:48:17.143Z,102734.59
2023-04-16T09:51:22.221Z,102735.47
2023-04-16T09:54:29.548Z,102733.81
2023-04-16T09:57:34.559Z,102737.25
2023-04-16T10:00:43.704Z,102735.47
2023-04-16T10:03:52.161Z,102744.00
2023-04-16T10:07:07.153Z,102733.97
2023-04-16T10:10:14.746Z,102736.47
2023-04-16T10:13:20.407Z,102736.50
2023-04-16T10:16:25.563Z,102729.94
2023-04-16T10:19:31.709Z,102736.03
2023-04-16T10:22:36.839Z,102730.06
2023-04-16T10:25:45.112Z,102736.03
2023-04-16T10:28:50.590Z,102740.31
2023-04-16T10:31:56.474Z,102733.53
2023-04-16T10:35:01.750Z,102743.81
2023-04-16T10:38:25.756Z,102737.91
2023-04-16T10:41:34.672Z,102736.28
2023-04-16T10:44:43.461Z,102732.94
2023-04-16T10:47:49.640Z,102733.78
2023-04-16T10:50:58.800Z,102722.84
2023-04-16T10:54:20.672Z,102733.88
2023-04-16T10:57:31.795Z,102725.44
2023-04-16T11:00:51.349Z,102730.56
2023-04-16T11:03:56.721Z,102723.72
2023-04-16T11:07:06.578Z,102740.69
2023-04-16T11:10:15.121Z,102724.59
2023-04-16T11:13:22.055Z,102740.75
2023-04-16T11:16:28.464Z,102727.13
2023-04-16T11:19:33.617Z,102733.09
2023-04-16T11:22:38.846Z,102735.66
2023-04-16T11:25:43.874Z,102730.59
2023-04-16T11:28:50.430Z,102728.06
2023-04-16T11:31:56.356Z,102735.72
2023-04-16T11:35:03.923Z,102734.94
2023-04-16T11:38:09.591Z,102723.88
2023-04-16T11:41:22.854Z,102730.72
2023-04-16T11:44:30.493Z,102730.72
2023-04-16T11:47:44.734Z,102720.47
2023-04-16T11:50:58.058Z,102712.81
2023-04-16T11:54:03.224Z,102717.09
2023-04-16T11:57:08.319Z,102717.97
2023-04-16T12:00:16.791Z,102715.41
2023-04-16T12:03:40.540Z,102719.69
2023-04-16T12:07:07.483Z,102719.72
2023-04-16T12:10:14.408Z,102723.97
2023-04-16T12:13:19.812Z,102728.25
2023-04-16T12:16:27.615Z,102720.56
2023-04-16T12:19:33.159Z,102711.19
2023-04-16T12:22:39.686Z,102718.84
2023-04-16T12:25:45.059Z,102721.44
2023-04-16T12:28:50.168Z,102712.06
2023-04-16T12:31:57.054Z,102714.59
2023-04-16T12:35:02.196Z,102701.81
2023-04-16T12:38:07.363Z,102704.38
2023-04-16T12:41:12.497Z,102712.91
2023-04-16T12:44:18.862Z,102704.38
2023-04-16T12:47:25.386Z,102710.38
2023-04-16T12:50:30.634Z,102715.47
2023-04-16T12:53:36.047Z,102707.78
2023-04-16T12:56:41.562Z,102698.41
2023-04-16T12:59:47.168Z,102701.81
2023-04-16T13:02:53.844Z,102700.97
2023-04-16T13:05:59.144Z,102710.34
2023-04-16T13:09:04.720Z,102700.94
2023-04-16T13:12:09.994Z,102706.97
2023-04-16T13:15:15.166Z,102708.66
2023-04-16T13:18:21.726Z,102708.66
2023-04-16T13:21:27.327Z,102703.50
2023-04-16T13:24:32.597Z,102708.66
2023-04-16T13:27:37.741Z,102701.84
2023-04-16T13:30:42.882Z,102700.09
2023-04-16T13:33:49.721Z,102706.09
2023-04-16T13:36:55.105Z,102704.38
2023-04-16T13:40:00.180Z,102704.38
2023-04-16T13:43:07.588Z,102703.53
2023-04-16T13:46:13.189Z,102689.03
2023-04-16T13:49:19.873Z,102699.25
2023-04-16T13:52:25.129Z,102692.47
2023-04-16T13:55:31.899Z,102689.91
2023-04-16T13:58:37.542Z,102694.13
2023-04-16T14:01:42.620Z,102690.75
2023-04-16T14:04:49.229Z,102690.72
2023-04-16T14:07:54.728Z,102699.28
2023-04-16T14:10:59.853Z,102677.09
2023-04-16T14:14:04.996Z,102689.88
2023-04-16T14:17:11.628Z,102689.91
2023-04-16T14:20:18.213Z,102696.72
2023-04-16T14:23:23.416Z,102689.88
2023-04-16T14:26:28.512Z,102699.25
2023-04-16T14:29:33.874Z,102686.50
2023-04-16T14:32:39.169Z,102689.03
2023-04-16T14:35:46.186Z,102697.56
2023-04-16T14:38:51.583Z,102693.28
2023-04-16T14:41:56.817Z,102702.66
2023-04-16T14:45:02.146Z,102696.72
2023-04-16T14:48:07.901Z,102697.56
2023-04-16T14:51:14.448Z,102690.72
2023-04-16T14:54:20.484Z,102699.25
2023-04-16T14:57:25.866Z,102692.44
2023-04-16T15:00:31.358Z,102706.91
2023-04-16T15:03:36.608Z,102702.63
2023-04-16T15:06:43.679Z,102706.88
2023-04-16T15:09:48.801Z,102712.00
2023-04-16T15:12:54.132Z,102713.69
2023-04-16T15:15:59.252Z,102708.53
2023-04-16T15:19:05.387Z,102716.19
2023-04-16T15:22:14.836Z,102719.59
2023-04-16T15:25:20.127Z,102717.03
2023-04-16T15:28:25.174Z,102722.13
2023-04-16T15:31:30.539Z,102729.78
2023-04-16T15:34:35.920Z,102727.19
2023-04-16T15:37:42.408Z,102717.84
2023-04-16T15:40:48.035Z,102722.09
2023-04-16T15:43:53.135Z,102725.50
2023-04-16T15:46:58.190Z,102727.16
2023-04-16T15:50:03.841Z,102727.97
2023-04-16T15:53:10.350Z,102733.09
2023-04-16T15:56:15.430Z,102734.75
2023-04-16T15:59:20.513Z,102739.84
2023-04-16T16:02:26.256Z,102734.75
2023-04-16T16:05:31.542Z,102739.78
2023-04-16T16:08:38.442Z,102743.22
2023-04-16T16:11:43.531Z,102743.22
2023-04-16T16:14:49.510Z,102745.66
2023-04-16T16:17:55.672Z,102739.69
2023-04-16T16:21:01.561Z,102748.09
2023-04-16T16:24:08.611Z,102745.44
2023-04-16T16:27:13.949Z,102751.44
2023-04-16T16:30:19.023Z,102762.38
2023-04-16T16:33:24.116Z,102754.72
2023-04-16T16:36:29.828Z,102758.06
2023-04-16T16:39:38.488Z,102758.91
2023-04-16T16:42:44.061Z,102763.09
2023-04-16T16:45:49.172Z,102764.91
2023-04-16T16:48:54.214Z,102768.06
2023-04-16T16:51:59.379Z,102767.06
2023-04-16T16:55:08.752Z,102772.03
2023-04-16T16:58:14.683Z,102766.22
2023-04-16T17:01:20.013Z,102781.41
2023-04-16T17:04:25.476Z,102777.91
2023-04-16T17:07:30.795Z,102786.50
2023-04-16T17:10:37.490Z,102780.38
2023-04-16T17:13:42.672Z,102782.84
2023-04-16T17:16:49.906Z,102787.81
2023-04-16T17:19:55.126Z,102806.44
2023-04-16T17:23:00.297Z,102808.88
2023-04-16T17:26:07.020Z,102799.59
2023-04-16T17:29:14.554Z,102802.94
2023-04-16T17:32:19.640Z,102799.31
2023-04-16T17:35:25.390Z,102794.13
2023-04-16T17:38:30.516Z,102800.75
2023-04-16T17:41:37.129Z,102810.50
2023-04-16T17:44:42.754Z,102806.97
2023-04-16T17:47:47.867Z,102818.06
2023-04-16T17:50:53.294Z,102822.22
2023-04-16T17:53:58.463Z,102824.03
2023-04-16T17:57:04.979Z,102819.69
2023-04-16T18:00:16.694Z,102819.97
2023-04-16T18:03:22.380Z,102822.50
2023-04-16T18:06:27.720Z,102820.19
2023-04-16T18:09:32.858Z,102834.06
2023-04-16T18:12:39.399Z,102843.19
2023-04-16T18:15:44.635Z,102840.41
2023-04-16T18:18:49.944Z,102849.22
2023-04-16T18:21:55.071Z,102846.53
2023-04-16T18:25:00.431Z,102851.38
2023-04-16T18:28:07.242Z,102851.28
2023-04-16T18:31:13.446Z,102849.41
2023-04-16T18:34:18.831Z,102855.94
2023-04-16T18:37:24.033Z,102858.53
2023-04-16T18:40:29.348Z,102853.16
2023-04-16T18:43:36.300Z,102867.66
2023-04-16T18:46:57.782Z,102858.13
2023-04-16T18:50:03.084Z,102864.75
2023-04-16T18:53:08.619Z,102865.69
2023-04-16T18:56:14.142Z,102863.38
2023-04-16T18:59:20.615Z,102881.63
2023-04-16T19:02:26.150Z,102878.22
2023-04-16T19:05:31.556Z,102881.25
2023-04-16T19:08:36.853Z,102888.50
2023-04-16T19:11:41.960Z,102882.13
2023-04-16T19:14:48.538Z,102888.88
2023-04-16T19:17:54.290Z,102885.34
2023-04-16T19:21:02.497Z,102894.59
2023-04-16T19:24:08.698Z,102895.25
2023-04-16T19:27:14.102Z,102894.03
2023-04-16T19:30:20.878Z,102891.84
2023-04-16T19:33:26.295Z,102901.91
2023-04-16T19:36:32.150Z,102906.78
2023-04-16T19:39:37.308Z,102911.00
2023-04-16T19:42:45.281Z,102904.91
2023-04-16T19:45:53.657Z,102898.06
2023-04-16T19:48:58.925Z,102904.84
2023-04-16T19:52:04.102Z,102908.19
2023-04-16T19:55:10.109Z,102903.78
2023-04-16T19:58:15.389Z,102901.28
2023-04-16T20:01:22.127Z,102904.72
2023-04-16T20:04:27.502Z,102904.50
2023-04-16T20:07:32.660Z,102900.69
2023-04-16T20:10:37.853Z,102901.63
2023-04-16T20:13:43.249Z,102907.25
2023-04-16T20:16:49.860Z,102901.56
2023-04-16T20:19:57.653Z,102912.81
2023-04-16T20:23:02.858Z,102912.81
2023-04-16T20:26:08.184Z,102909.13
2023-04-16T20:29:16.558Z,102917.56
2023-04-16T20:32:23.773Z,102914.53
2023-04-16T20:35:30.176Z,102919.56
2023-04-16T20:38:36.921Z,102914.13
2023-04-16T20:41:44.369Z,102913.78
2023-04-16T20:44:50.683Z,102921.75
2023-04-16T20:47:57.377Z,102913.03
2023-04-16T20:51:02.925Z,102917.47
2023-04-16T20:54:10.225Z,102920.00
2023-04-16T20:57:16.405Z,102921.75
2023-04-16T21:00:22.467Z,102925.97
2023-04-16T21:03:29.382Z,102923.22
2023-04-16T21:06:38.522Z,102921.28
2023-04-16T21:09:43.609Z,102927.09
2023-04-16T21:12:48.777Z,102924.09
2023-04-16T21:15:54.372Z,102934.28
2023-04-16T21:19:01.326Z,102939.53
2023-04-16T21:22:06.422Z,102937.59
2023-04-16T21:25:12.266Z,102928.03
2023-04-16T21:28:17.354Z,102940.88
2023-04-16T21:31:22.589Z,102941.50
2023-04-16T21:34:29.004Z,102952.50
2023-04-16T21:37:34.312Z,102943.13
2023-04-16T21:40:39.780Z,102945.31
2023-04-16T21:43:44.896Z,102943.78
2023-04-16T21:46:50.059Z,102953.72
2023-04-16T21:49:56.617Z,102948.34
2023-04-16T21:53:06.494Z,102954.47
2023-04-16T21:56:12.563Z,102949.66
2023-04-16T21:59:17.614Z,102948.69
2023-04-16T22:02:22.938Z,102940.16
2023-04-16T22:05:30.223Z,102948.19
2023-04-16T22:08:35.410Z,102959.91
2023-04-16T22:11:40.846Z,102953.53
2023-04-16T22:15:01.592Z,102965.94
2023-04-16T22:18:09.729Z,102976.50
2023-04-16T22:21:16.311Z,102956.03
2023-04-16T22:24:21.428Z,102962.94
2023-04-16T22:27:26.525Z,102966.25
2023-04-16T22:30:31.593Z,102966.59
2023-04-16T22:33:36.753Z,102968.19
2023-04-16T22:36:43.239Z,102970.22
2023-04-16T22:39:48.467Z,102979.19
2023-04-16T22:42:53.534Z,102973.28
2023-04-16T22:46:04.905Z,102975.00
2023-04-16T22:49:10.481Z,102978.03
2023-04-16T22:52:17.196Z,102977.06
2023-04-16T22:55:22.765Z,102985.34
2023-04-16T22:58:27.834Z,102980.22
2023-04-16T23:01:33.207Z,102980.28
2023-04-16T23:04:38.411Z,102978.53
2023-04-16T23:07:44.875Z,102976.28
2023-04-16T23:10:50.031Z,102985.78
2023-04-16T23:13:55.187Z,102992.25
2023-04-16T23:17:00.548Z,102993.00
2023-04-16T23:20:07.727Z,102995.03
2023-04-16T23:23:16.726Z,103002.78
2023-04-16T23:26:21.817Z,103007.84
2023-04-16T23:29:27.018Z,103002.03
2023-04-16T23:32:34.102Z,102998.72
2023-04-16T23:35:39.283Z,102996.72
2023-04-16T23:38:45.728Z,103006.44
2023-04-16T23:41:51.499Z,103010.09
2023-04-16T23:44:56.635Z,102997.34
2023-04-16T23:48:01.917Z,102993.53
2023-04-16T23:51:07.535Z,102995.06
2023-04-16T23:54:17.193Z,103001.59
2023-04-16T23:57:22.235Z,102999.97
